Time;durP1;ratioP1;P1;durP2;ratioP2;P2;SDS_P1;SDS_P2;PMS_P1;PMS_P2;Temp;Humidity;BMP_temperature;BMP_pressure;BME280_temperature;BME280_humidity;BME280_pressure;Samples;Min_cycle;Max_cycle;Signal;HPM_P1;HPM_P2
2022/01/02 00:00:53;;;;;;;41.13;8.77;;;;;;;6.92;96.81;98780.72;4854876;29;20624;-84
2022/01/02 00:03:41;;;;;;;15.83;5.93;;;;;;;6.91;95.92;98779.84;4863148;29;20698;-84
2022/01/02 00:06:32;;;;;;;20.03;7.13;;;;;;;6.89;95.85;98776.47;4851089;29;20658;-84
2022/01/02 00:09:25;;;;;;;20.40;6.83;;;;;;;6.85;95.69;98769.75;4855300;29;20697;-85
2022/01/02 00:12:14;;;;;;;18.73;7.07;;;;;;;6.86;94.78;98775.78;4860290;29;20642;-85
2022/01/02 00:15:05;;;;;;;35.57;8.27;;;;;;;6.87;95.10;98777.44;4855714;29;20630;-83
2022/01/02 00:17:53;;;;;;;28.07;7.23;;;;;;;6.88;96.18;98769.59;4858121;29;20795;-83
2022/01/02 00:20:47;;;;;;;21.20;7.03;;;;;;;6.88;95.54;98769.59;4858084;29;21166;-83
2022/01/02 00:23:47;;;;;;;17.20;6.80;;;;;;;6.89;96.06;98778.25;4857304;29;21206;-83
2022/01/02 00:26:39;;;;;;;26.17;7.30;;;;;;;6.92;95.96;98772.94;4858183;29;20723;-83
2022/01/02 00:29:26;;;;;;;25.47;7.40;;;;;;;6.92;94.83;98773.75;4854619;29;20625;-83
2022/01/02 00:32:14;;;;;;;19.80;6.40;;;;;;;6.93;95.49;98761.63;4859200;29;20638;-83
2022/01/02 00:35:01;;;;;;;30.80;7.60;;;;;;;6.91;95.52;98769.47;4867417;29;21181;-83
2022/01/02 00:37:48;;;;;;;29.63;7.90;;;;;;;6.92;95.57;98770.34;4855529;29;20629;-83
2022/01/02 00:40:41;;;;;;;16.73;7.50;;;;;;;6.90;95.84;98778.19;4867141;29;20779;-83
2022/01/02 00:43:42;;;;;;;25.73;8.00;;;;;;;6.89;95.50;98771.31;4856142;29;20661;-83
2022/01/02 00:46:32;;;;;;;14.70;6.60;;;;;;;6.87;95.21;98767.94;4856100;29;20631;-83
2022/01/02 00:49:24;;;;;;;29.27;7.07;;;;;;;6.82;94.31;98769.03;4851519;29;21185;-83
2022/01/02 00:52:15;;;;;;;40.33;10.20;;;;;;;6.80;94.20;98771.69;4852355;29;20626;-83
2022/01/02 00:55:03;;;;;;;29.70;8.67;;;;;;;6.71;94.72;98753.94;4850244;29;20618;-83
2022/01/02 00:57:57;;;;;;;20.03;7.57;;;;;;;6.67;93.67;98756.72;4851609;29;21185;-83
2022/01/02 01:00:49;;;;;;;18.77;7.83;;;;;;;6.63;93.47;98745.66;4864728;29;21151;-83
2022/01/02 01:03:36;;;;;;;23.83;7.80;;;;;;;6.57;93.68;98739.91;4856623;29;20669;-83
2022/01/02 01:06:25;;;;;;;39.60;8.40;;;;;;;6.59;94.12;98746.69;4854896;29;21219;-83
2022/01/02 01:09:11;;;;;;;26.50;7.90;;;;;;;6.59;94.60;98751.03;4855641;29;20720;-83
2022/01/02 01:11:58;;;;;;;16.27;7.30;;;;;;;6.59;95.31;98746.69;4857100;29;21217;-83
2022/01/02 01:14:47;;;;;;;26.90;7.50;;;;;;;6.58;95.10;98742.44;4841363;29;20720;-83
2022/01/02 01:17:37;;;;;;;20.03;8.03;;;;;;;6.54;94.89;98747.81;4845637;29;20629;-83
2022/01/02 01:20:25;;;;;;;26.70;8.13;;;;;;;6.52;94.28;98741.81;4848800;29;20638;-83
2022/01/02 01:23:16;;;;;;;28.53;7.77;;;;;;;6.50;94.48;98735.88;4853875;29;20997;-83
2022/01/02 01:26:07;;;;;;;33.23;7.93;;;;;;;6.51;95.06;98731.53;4849653;29;20629;-83
2022/01/02 01:28:53;;;;;;;37.80;6.70;;;;;;;6.51;95.64;98736.69;4854581;29;20613;-83
2022/01/02 01:31:41;;;;;;;29.67;7.07;;;;;;;6.50;95.73;98724.69;4867582;29;20640;-83
2022/01/02 01:34:28;;;;;;;31.57;7.80;;;;;;;6.47;95.88;98720.44;4859173;29;20633;-83
2022/01/02 01:37:15;;;;;;;23.50;7.83;;;;;;;6.45;95.97;98706.72;4863749;29;20723;-83
2022/01/02 01:40:03;;;;;;;48.73;7.67;;;;;;;6.40;95.66;98718.19;4866009;29;20679;-83
2022/01/02 01:43:00;;;;;;;18.83;6.27;;;;;;;6.39;94.94;98716.50;4855526;29;20630;-83
2022/01/02 01:45:59;;;;;;;19.53;6.40;;;;;;;6.36;95.69;98717.47;4852269;29;21374;-83
2022/01/02 01:48:53;;;;;;;24.10;7.83;;;;;;;6.36;95.60;98712.31;4868870;29;20651;-83
2022/01/02 01:51:40;;;;;;;19.70;5.77;;;;;;;6.38;95.39;98705.31;4854934;29;20640;-83
2022/01/02 01:54:27;;;;;;;24.43;8.70;;;;;;;6.27;95.25;98714.41;4856028;29;21265;-83
2022/01/02 01:57:13;;;;;;;35.27;7.80;;;;;;;6.24;95.47;98704.19;4863916;29;20695;-83
2022/01/02 02:00:00;;;;;;;27.00;8.73;;;;;;;6.19;95.32;98704.41;4860920;29;20647;-83
2022/01/02 02:02:52;;;;;;;34.73;9.47;;;;;;;6.15;94.92;98705.41;4860953;29;21470;-83
2022/01/02 02:05:42;;;;;;;36.30;8.40;;;;;;;6.11;95.66;98696.06;4857529;29;20682;-83
2022/01/02 02:08:31;;;;;;;24.00;9.83;;;;;;;6.07;95.24;98696.25;4852245;29;20690;-83
2022/01/02 02:11:18;;;;;;;26.80;9.70;;;;;;;6.08;95.35;98700.56;4856468;29;20627;-83
2022/01/02 02:14:06;;;;;;;30.63;10.53;;;;;;;6.07;95.12;98692.84;4850788;29;20622;-83
2022/01/02 02:16:55;;;;;;;24.60;9.60;;;;;;;6.04;95.05;98691.22;4848300;29;21183;-83
2022/01/02 02:19:42;;;;;;;24.17;9.67;;;;;;;6.03;94.74;98688.69;4867601;29;20630;-83
2022/01/02 02:22:30;;;;;;;20.77;9.37;;;;;;;6.01;95.39;98687.91;4853566;29;21197;-83
2022/01/02 02:25:18;;;;;;;21.17;7.50;;;;;;;5.99;95.58;98675.03;4853101;29;20666;-83
2022/01/02 02:28:09;;;;;;;17.00;7.00;;;;;;;5.98;94.63;98680.28;4854148;29;20622;-83
2022/01/02 02:30:56;;;;;;;21.03;6.93;;;;;;;5.93;94.91;98669.28;4868320;29;20981;-83
2022/01/02 02:33:43;;;;;;;43.83;8.00;;;;;;;5.91;95.39;98663.31;4868702;29;20716;-83
2022/01/02 02:36:30;;;;;;;24.70;7.60;;;;;;;5.88;94.99;98661.69;4855326;29;21225;-83
2022/01/02 02:39:18;;;;;;;26.50;6.90;;;;;;;5.84;95.12;98654.13;4866791;29;20723;-83
2022/01/02 02:42:12;;;;;;;17.90;7.73;;;;;;;5.84;95.30;98652.38;4852960;29;20735;-83
2022/01/02 02:48:58;;;;;;;36.97;6.00;;;;;;;5.84;95.28;98654.13;4850939;29;21212;-83
2022/01/02 02:51:27;;;;;;;17.73;5.87;;;;;;;5.80;94.94;98647.38;4844186;29;20615;-83
2022/01/02 02:54:19;;;;;;;22.77;6.23;;;;;;;5.77;94.97;98644.91;4851751;29;20624;-83
2022/01/02 02:57:12;;;;;;;17.30;5.53;;;;;;;5.73;94.60;98639.00;4848583;29;20664;-83
2022/01/02 02:59:59;;;;;;;10.70;4.60;;;;;;;5.71;94.53;98634.78;4844382;29;20725;-83
2022/01/02 03:02:46;;;;;;;15.33;4.93;;;;;;;5.64;94.07;98636.78;4851655;29;20620;-83
2022/01/02 03:05:33;;;;;;;18.97;4.50;;;;;;;5.61;94.34;98625.72;4857926;29;21066;-83
2022/01/02 03:08:19;;;;;;;31.67;6.80;;;;;;;5.63;95.06;98623.91;4850639;29;20727;-83
2022/01/02 03:11:13;;;;;;;18.13;5.87;;;;;;;5.60;94.70;98617.09;4848107;29;20643;-83
2022/01/02 03:14:00;;;;;;;19.10;6.83;;;;;;;5.57;94.64;98608.63;4848596;29;21100;-83
2022/01/02 03:16:47;;;;;;;13.40;4.87;;;;;;;5.54;94.43;98597.59;4848655;29;20618;-83
2022/01/02 03:19:34;;;;;;;12.03;5.23;;;;;;;5.48;94.83;98590.91;4856091;29;20640;-84
2022/01/02 03:22:21;;;;;;;29.03;5.90;;;;;;;5.48;94.02;98590.06;4854323;29;20624;-83
2022/01/02 03:25:13;;;;;;;25.17;4.77;;;;;;;5.46;94.83;98586.69;4844510;29;20669;-83
2022/01/02 03:28:03;;;;;;;17.73;5.23;;;;;;;5.46;95.70;98591.84;4852586;29;21169;-83
2022/01/02 03:30:49;;;;;;;44.87;7.17;;;;;;;5.47;95.99;98591.78;4854671;29;21250;-83
2022/01/02 03:33:37;;;;;;;29.97;7.47;;;;;;;5.48;95.70;98596.06;4860927;29;20977;-83
2022/01/02 03:36:24;;;;;;;35.60;6.97;;;;;;;5.50;95.90;98596.84;4844055;29;20696;-83
2022/01/02 03:39:11;;;;;;;28.50;7.60;;;;;;;5.53;95.64;98590.72;4852315;29;20631;-82
2022/01/02 03:41:58;;;;;;;22.90;5.60;;;;;;;5.54;95.88;98588.06;4852060;29;21006;-83
2022/01/02 03:44:46;;;;;;;27.43;5.90;;;;;;;5.51;94.97;98582.19;4861703;29;20777;-83
2022/01/02 03:47:33;;;;;;;32.03;7.53;;;;;;;5.50;95.67;98576.16;4848443;29;20667;-83
2022/01/02 03:50:19;;;;;;;36.30;5.73;;;;;;;5.56;95.58;98588.00;4865104;29;21178;-83
2022/01/02 03:53:07;;;;;;;22.17;5.73;;;;;;;5.61;96.20;98582.59;4853957;29;21211;-83
2022/01/02 03:55:53;;;;;;;37.10;7.43;;;;;;;5.62;96.00;98565.31;4859043;29;20629;-83
2022/01/02 03:58:40;;;;;;;46.80;6.57;;;;;;;5.66;95.73;98572.88;4865104;29;20631;-83
2022/01/02 04:01:28;;;;;;;52.23;8.20;;;;;;;5.66;95.81;98577.22;4861586;29;20640;-84
2022/01/02 04:04:16;;;;;;;38.40;7.93;;;;;;;5.65;95.85;98573.81;4865338;29;20630;-83
2022/01/02 04:07:03;;;;;;;53.67;7.87;;;;;;;5.65;95.80;98575.53;4861288;29;21078;-83
2022/01/02 04:09:51;;;;;;;43.70;8.70;;;;;;;5.67;96.19;98573.75;4847776;29;20633;-83
2022/01/02 04:12:38;;;;;;;36.47;6.90;;;;;;;5.68;95.15;98555.56;4853724;29;20631;-83
2022/01/02 04:15:24;;;;;;;20.80;6.60;;;;;;;5.67;95.15;98553.03;4866919;29;20666;-83
2022/01/02 04:18:12;;;;;;;15.27;5.83;;;;;;;5.64;95.27;98564.34;4857391;29;20633;-83
2022/01/02 04:20:59;;;;;;;35.83;7.97;;;;;;;5.63;94.59;98561.81;4865820;29;20631;-83
2022/01/02 04:23:46;;;;;;;25.17;6.40;;;;;;;5.61;94.32;98555.88;4857073;29;20668;-83
2022/01/02 04:26:33;;;;;;;55.40;7.57;;;;;;;5.54;95.07;98546.69;4854408;29;21238;-83
2022/01/02 04:29:19;;;;;;;37.87;9.00;;;;;;;5.56;94.92;98549.22;4856102;29;20675;-84
2022/01/02 04:32:06;;;;;;;27.07;6.20;;;;;;;5.56;94.98;98552.63;4865670;29;20629;-83
2022/01/02 04:34:55;;;;;;;43.30;7.43;;;;;;;5.56;95.28;98552.63;4855654;29;20644;-83
2022/01/02 04:37:42;;;;;;;21.90;5.77;;;;;;;5.56;95.07;98555.22;4856862;29;20621;-83
2022/01/02 04:40:29;;;;;;;20.83;5.93;;;;;;;5.54;94.26;98557.03;4854753;29;20628;-83
2022/01/02 04:43:16;;;;;;;35.30;6.27;;;;;;;5.50;94.00;98552.88;4857635;29;20726;-84
2022/01/02 04:46:05;;;;;;;46.07;7.93;;;;;;;5.53;94.54;98539.00;4856423;29;21015;-83
2022/01/02 04:48:52;;;;;;;43.67;6.90;;;;;;;5.53;94.71;98534.66;4848396;29;21220;-83
2022/01/02 04:51:40;;;;;;;51.73;7.30;;;;;;;5.54;94.85;98532.94;4850835;29;20982;-83
2022/01/02 04:54:27;;;;;;;43.57;6.63;;;;;;;5.56;95.47;98529.34;4852649;29;20618;-83
2022/01/02 04:57:14;;;;;;;52.47;8.10;;;;;;;5.59;95.73;98531.81;4848508;29;21178;-83
2022/01/02 05:00:01;;;;;;;38.03;7.87;;;;;;;5.62;95.50;98526.50;4846800;29;21183;-83
2022/01/02 05:02:49;;;;;;;41.73;6.97;;;;;;;5.61;95.08;98514.50;4848137;29;20631;-83
2022/01/02 05:05:37;;;;;;;31.70;6.60;;;;;;;5.59;94.96;98515.47;4852825;29;20790;-83
2022/01/02 05:08:25;;;;;;;33.90;6.53;;;;;;;5.53;94.02;98506.19;4853732;29;20610;-83
2022/01/02 05:11:13;;;;;;;30.03;6.67;;;;;;;5.51;94.12;98497.66;4859861;29;20625;-83
2022/01/02 05:14:00;;;;;;;39.23;7.17;;;;;;;5.49;94.51;98494.31;4852717;29;20630;-83
2022/01/02 05:16:47;;;;;;;20.07;4.93;;;;;;;5.50;94.76;98490.81;4856997;29;20621;-83
2022/01/02 05:19:34;;;;;;;39.60;9.57;;;;;;;5.56;95.38;98497.47;4855640;29;20636;-83
2022/01/02 05:22:22;;;;;;;8.33;4.83;;;;;;;5.57;95.42;98505.19;4867711;29;20633;-83
2022/01/02 05:25:10;;;;;;;11.00;5.17;;;;;;;5.60;95.65;98505.88;4859730;29;20643;-83
2022/01/02 05:27:57;;;;;;;17.33;6.30;;;;;;;5.62;95.35;98501.50;4857021;29;20672;-83
2022/01/02 05:30:43;;;;;;;13.70;5.03;;;;;;;5.63;95.60;98500.56;4866507;29;21168;-83
2022/01/02 05:33:30;;;;;;;9.43;5.43;;;;;;;5.62;95.15;98492.88;4855350;29;20724;-83
2022/01/02 05:36:17;;;;;;;33.27;6.33;;;;;;;5.61;95.24;98483.47;4850278;29;20657;-83
2022/01/02 05:39:06;;;;;;;18.10;5.53;;;;;;;5.62;95.18;98487.72;4856735;29;20634;-84
2022/01/02 05:41:54;;;;;;;17.43;9.70;;;;;;;5.63;94.89;98485.06;4849247;29;20734;-84
2022/01/02 05:44:43;;;;;;;9.33;4.80;;;;;;;5.62;94.76;98480.81;4846343;29;21186;-83
2022/01/02 05:47:30;;;;;;;11.70;6.20;;;;;;;5.64;95.08;98483.34;4847595;29;20672;-83
2022/01/02 05:50:16;;;;;;;12.30;5.40;;;;;;;5.66;94.67;98478.91;4867343;29;21192;-83
2022/01/02 05:53:03;;;;;;;12.83;5.33;;;;;;;5.66;95.13;98472.00;4851240;29;20625;-83
2022/01/02 05:55:50;;;;;;;15.23;6.20;;;;;;;5.70;95.28;98464.97;4860663;29;20628;-83
2022/01/02 05:58:39;;;;;;;8.60;6.50;;;;;;;5.71;95.27;98483.00;4851687;29;20646;-83
2022/01/02 06:01:26;;;;;;;12.07;7.23;;;;;;;5.74;94.42;98458.75;4852588;29;21046;-83
2022/01/02 06:04:13;;;;;;;23.13;6.60;;;;;;;5.68;94.27;98452.09;4851814;29;20673;-84
2022/01/02 06:07:00;;;;;;;10.43;6.57;;;;;;;5.69;94.14;98458.94;4854949;29;21113;-84
2022/01/02 06:09:50;;;;;;;5.97;5.30;;;;;;;5.70;94.87;98459.78;4856107;29;20666;-83
2022/01/02 06:12:37;;;;;;;7.93;6.33;;;;;;;5.79;94.77;98454.25;4857826;29;21162;-83
2022/01/02 06:15:25;;;;;;;9.03;6.33;;;;;;;5.80;94.92;98451.59;4861098;29;20964;-83
2022/01/02 06:18:12;;;;;;;7.30;6.20;;;;;;;5.83;95.17;98455.78;4866271;29;20629;-83
2022/01/02 06:20:59;;;;;;;7.83;5.83;;;;;;;5.80;94.92;98455.91;4854508;29;20630;-83
2022/01/02 06:23:45;;;;;;;7.30;5.57;;;;;;;5.73;94.14;98441.53;4854481;29;20630;-83
2022/01/02 06:26:32;;;;;;;8.27;5.00;;;;;;;5.72;94.26;98442.44;4847773;29;21302;-83
2022/01/02 06:29:19;;;;;;;8.47;5.57;;;;;;;5.73;94.09;98444.97;4858940;29;20629;-83
2022/01/02 06:32:07;;;;;;;7.63;5.43;;;;;;;5.78;94.11;98444.78;4850783;29;20636;-83
2022/01/02 06:34:54;;;;;;;8.60;5.93;;;;;;;5.79;93.50;98443.91;4848082;29;20672;-83
2022/01/02 06:37:41;;;;;;;10.37;6.63;;;;;;;5.79;93.54;98443.91;4862852;29;20988;-83
2022/01/02 06:40:28;;;;;;;9.70;6.37;;;;;;;5.76;93.95;98439.69;4861847;29;20992;-83
2022/01/02 06:43:16;;;;;;;10.40;6.43;;;;;;;5.77;93.89;98427.56;4862314;29;20653;-83
2022/01/02 06:46:03;;;;;;;13.60;7.70;;;;;;;5.80;94.38;98428.31;4846885;29;20671;-83
2022/01/02 06:48:51;;;;;;;11.10;7.90;;;;;;;5.84;94.91;98431.59;4853260;29;20648;-84
2022/01/02 06:51:57;;;;;;;8.40;6.33;;;;;;;5.89;95.08;98435.63;4859292;29;20623;-83
2022/01/02 06:54:44;;;;;;;6.20;5.60;;;;;;;5.94;95.33;98443.19;4856005;29;21020;-84
2022/01/02 06:57:31;;;;;;;7.10;6.03;;;;;;;5.96;95.33;98444.81;4847893;29;20996;-83
2022/01/02 07:00:18;;;;;;;9.87;8.57;;;;;;;5.98;94.97;98448.16;4846668;29;20678;-83
2022/01/02 07:03:05;;;;;;;9.63;7.30;;;;;;;5.99;95.50;98446.44;4862473;29;20634;-83
2022/01/02 07:05:54;;;;;;;8.53;5.67;;;;;;;6.00;95.06;98450.69;4858922;29;20700;-83
2022/01/02 07:08:41;;;;;;;7.53;6.07;;;;;;;6.04;94.94;98444.47;4863531;29;21191;-83
2022/01/02 07:11:28;;;;;;;8.00;6.53;;;;;;;6.02;95.09;98451.47;4849856;29;20614;-84
2022/01/02 07:14:14;;;;;;;9.50;7.07;;;;;;;6.00;94.75;98441.19;4853836;29;20658;-83
2022/01/02 07:17:04;;;;;;;8.27;6.43;;;;;;;6.02;95.01;98435.94;4852210;29;20632;-83
2022/01/02 07:19:51;;;;;;;9.33;6.23;;;;;;;6.00;94.17;98438.59;4851594;29;20737;-83
2022/01/02 07:22:40;;;;;;;7.17;5.80;;;;;;;6.01;94.52;98439.44;4852458;29;21172;-83
2022/01/02 07:25:27;;;;;;;7.40;5.93;;;;;;;6.03;94.24;98429.84;4854214;29;20656;-83
2022/01/02 07:28:14;;;;;;;8.67;6.10;;;;;;;6.02;94.64;98426.44;4855449;29;21080;-83
2022/01/02 07:31:00;;;;;;;12.10;6.23;;;;;;;6.04;95.11;98422.00;4856060;29;20626;-83
2022/01/02 07:33:47;;;;;;;8.70;6.30;;;;;;;6.05;95.01;98421.13;4858913;29;20637;-83
2022/01/02 07:36:34;;;;;;;8.57;6.30;;;;;;;6.08;94.79;98409.78;4856333;29;20665;-83
2022/01/02 07:39:25;;;;;;;7.10;5.60;;;;;;;6.09;94.86;98415.72;4863436;29;20728;-83
2022/01/02 07:42:13;;;;;;;7.40;5.63;;;;;;;6.10;94.74;98416.56;4854438;29;20682;-83
2022/01/02 07:45:08;;;;;;;8.23;5.50;;;;;;;6.12;94.80;98428.53;4850297;29;20643;-83
2022/01/02 07:47:55;;;;;;;7.60;5.67;;;;;;;6.13;95.12;98430.22;4850669;29;20681;-84
2022/01/02 07:50:42;;;;;;;10.17;5.67;;;;;;;6.14;94.82;98415.50;4849040;29;21240;-84
2022/01/02 07:53:29;;;;;;;6.07;5.47;;;;;;;6.15;94.62;98423.22;4855577;29;20717;-83
2022/01/02 07:56:17;;;;;;;7.90;5.90;;;;;;;6.18;95.14;98428.25;4867576;29;20636;-83
2022/01/02 07:59:04;;;;;;;7.40;5.97;;;;;;;6.19;94.62;98424.75;4856756;29;21170;-83
2022/01/02 08:01:51;;;;;;;9.73;6.40;;;;;;;6.21;94.90;98422.09;4871784;29;20642;-83
2022/01/02 08:04:38;;;;;;;8.10;6.00;;;;;;;6.23;94.29;98428.88;4867566;29;20648;-83
2022/01/02 08:07:24;;;;;;;8.90;5.93;;;;;;;6.27;94.82;98435.59;4866037;29;20681;-83
2022/01/02 08:10:11;;;;;;;10.90;7.23;;;;;;;6.32;94.41;98436.22;4854900;29;21171;-83
2022/01/02 08:12:59;;;;;;;14.23;7.60;;;;;;;6.35;94.23;98425.72;4853333;29;21048;-83
2022/01/02 08:15:48;;;;;;;11.67;7.60;;;;;;;6.38;94.08;98435.09;4855216;29;20740;-83
2022/01/02 08:18:35;;;;;;;9.37;7.13;;;;;;;6.41;94.18;98425.44;4855947;29;20633;-83
2022/01/02 08:21:21;;;;;;;14.27;8.20;;;;;;;6.46;95.39;98428.66;4858333;29;20635;-84
2022/01/02 08:24:08;;;;;;;10.23;7.90;;;;;;;6.52;95.09;98427.53;4860456;29;20638;-83
2022/01/02 08:26:55;;;;;;;32.20;23.83;;;;;;;6.62;95.44;98425.25;4854159;29;20669;-84
2022/01/02 08:29:45;;;;;;;18.67;13.40;;;;;;;6.68;94.07;98424.97;4851095;29;20990;-83
2022/01/02 08:32:32;;;;;;;38.90;23.60;;;;;;;6.71;94.20;98419.66;4852054;29;21201;-83
2022/01/02 08:35:18;;;;;;;32.67;20.10;;;;;;;6.76;94.87;98422.00;4850586;29;20637;-83
2022/01/02 08:38:05;;;;;;;21.30;14.60;;;;;;;6.94;95.86;98411.59;4846069;29;20621;-84
2022/01/02 08:40:52;;;;;;;13.23;9.87;;;;;;;7.04;94.23;98418.84;4850365;29;20697;-83
2022/01/02 08:43:39;;;;;;;11.73;8.20;;;;;;;7.27;95.77;98423.72;4861282;29;20635;-83
2022/01/02 08:46:27;;;;;;;7.97;7.03;;;;;;;7.37;94.38;98419.78;4863831;29;20630;-83
2022/01/02 08:49:13;;;;;;;7.73;6.50;;;;;;;7.36;93.18;98418.09;4852727;29;20745;-83
2022/01/02 08:52:00;;;;;;;8.57;6.37;;;;;;;7.39;93.86;98414.50;4855947;29;20629;-84
2022/01/02 08:54:50;;;;;;;7.90;6.30;;;;;;;7.42;93.79;98409.16;4857998;29;20635;-83
2022/01/02 08:57:37;;;;;;;7.10;5.90;;;;;;;7.44;93.94;98404.72;4857139;29;20645;-83
2022/01/02 09:00:24;;;;;;;8.60;6.40;;;;;;;7.46;95.28;98402.88;4857196;29;20981;-83
2022/01/02 09:03:12;;;;;;;8.50;6.83;;;;;;;7.50;94.75;98411.28;4857733;29;20630;-83
2022/01/02 09:05:59;;;;;;;10.67;7.40;;;;;;;7.58;95.30;98408.31;4858614;29;20658;-84
2022/01/02 09:08:48;;;;;;;9.50;7.80;;;;;;;7.62;95.14;98418.44;4864449;29;21236;-84
2022/01/02 09:11:34;;;;;;;9.53;6.50;;;;;;;7.69;95.93;98419.78;4855282;29;20624;-83
2022/01/02 09:14:22;;;;;;;7.70;6.87;;;;;;;7.66;94.91;98424.31;4855256;29;21002;-83
2022/01/02 09:17:09;;;;;;;11.37;8.40;;;;;;;7.67;94.56;98432.03;4852662;29;20627;-83
2022/01/02 09:19:57;;;;;;;10.53;7.73;;;;;;;7.77;94.65;98430.63;4864056;29;20704;-83
2022/01/02 09:22:46;;;;;;;9.70;7.50;;;;;;;7.88;94.74;98430.06;4850081;29;20627;-83
2022/01/02 09:25:33;;;;;;;8.57;6.83;;;;;;;7.99;94.77;98428.56;4849009;29;21171;-83
2022/01/02 09:28:19;;;;;;;10.03;6.90;;;;;;;8.09;95.12;98441.00;4849608;29;21248;-83
2022/01/02 09:31:06;;;;;;;7.40;6.37;;;;;;;8.27;94.81;98429.66;4861321;29;20648;-83
2022/01/02 09:33:53;;;;;;;34.33;17.57;;;;;;;8.40;95.13;98424.63;4853378;29;20628;-83
2022/01/02 09:36:41;;;;;;;22.37;12.90;;;;;;;8.37;93.61;98435.19;4855232;29;21160;-83
2022/01/02 09:39:27;;;;;;;19.20;11.10;;;;;;;8.43;94.17;98425.31;4855580;29;20709;-83
2022/01/02 09:42:15;;;;;;;17.70;11.27;;;;;;;8.50;93.99;98416.25;4855099;29;20653;-83
2022/01/02 09:45:03;;;;;;;12.30;8.80;;;;;;;8.60;94.14;98422.59;4848389;29;21192;-83
2022/01/02 09:47:51;;;;;;;19.13;11.80;;;;;;;8.90;94.72;98426.09;4857620;29;20679;-83
2022/01/02 09:50:39;;;;;;;27.60;17.03;;;;;;;9.04;95.33;98434.81;4854235;29;20595;-83
2022/01/02 09:53:27;;;;;;;12.83;10.00;;;;;;;9.06;94.86;98433.78;4856717;29;20693;-83
2022/01/02 09:55:55;;;;;;;9.50;7.80;;;;;;;9.03;94.61;98428.75;4855403;29;20740;-83
2022/01/02 09:58:25;;;;;;;8.50;7.43;;;;;;;9.04;94.85;98438.25;4872498;29;20632;-83
2022/01/02 10:00:53;;;;;;;9.80;7.40;;;;;;;9.06;94.78;98435.56;4854469;29;20661;-84
2022/01/02 10:03:21;;;;;;;10.47;8.10;;;;;;;9.12;95.45;98437.81;4852973;29;20638;-83
2022/01/02 10:05:52;;;;;;;7.87;6.90;;;;;;;9.16;94.39;98434.13;4854374;29;21220;-83
2022/01/02 10:08:22;;;;;;;9.03;7.43;;;;;;;9.18;94.89;98424.47;4854734;29;21059;-83
2022/01/02 10:11:00;;;;;;;14.57;9.53;;;;;;;9.26;95.32;98422.25;4853816;29;21012;-83
2022/01/02 10:13:42;;;;;;;11.10;7.90;;;;;;;9.30;95.42;98416.78;4850022;29;20651;-83
2022/01/02 10:16:24;;;;;;;13.30;10.60;;;;;;;9.33;95.40;98428.78;4850815;29;20641;-83
2022/01/02 10:18:54;;;;;;;16.10;12.13;;;;;;;9.38;95.27;98424.13;4850785;29;20647;-83
2022/01/02 10:21:30;;;;;;;13.37;10.47;;;;;;;9.39;95.76;98408.44;4851837;29;20638;-83
2022/01/02 10:24:13;;;;;;;11.53;9.90;;;;;;;9.39;95.43;98408.44;4854497;29;20649;-83
2022/01/02 10:27:05;;;;;;;12.53;9.00;;;;;;;9.38;95.47;98414.56;4854704;29;20632;-83
2022/01/02 10:29:42;;;;;;;14.10;12.60;;;;;;;9.39;95.81;98405.81;4847847;29;20666;-83
2022/01/02 10:32:27;;;;;;;15.37;12.40;;;;;;;9.40;96.08;98389.28;4857359;29;20647;-83
2022/01/02 10:35:08;;;;;;;16.37;13.63;;;;;;;9.38;96.41;98389.38;4842317;29;21302;-83
2022/01/02 10:37:39;;;;;;;15.93;14.10;;;;;;;9.41;96.33;98398.75;4829847;29;20663;-83
2022/01/02 10:40:25;;;;;;;15.77;13.30;;;;;;;9.42;96.55;98388.25;4842868;29;20662;-83
2022/01/02 10:42:55;;;;;;;13.70;11.67;;;;;;;9.41;96.17;98391.81;4854888;29;20646;-83
2022/01/02 10:45:35;;;;;;;12.50;9.10;;;;;;;9.42;96.53;98379.63;4849561;29;20649;-83
2022/01/02 10:48:03;;;;;;;9.23;7.43;;;;;;;9.42;96.73;98366.59;4857506;29;20772;-83
2022/01/02 10:50:36;;;;;;;10.37;9.20;;;;;;;9.42;96.63;98358.78;4854257;29;20642;-83
2022/01/02 10:53:12;;;;;;;11.77;8.23;;;;;;;9.43;96.75;98373.50;4852302;29;20641;-83
2022/01/02 10:55:40;;;;;;;11.17;9.40;;;;;;;9.44;96.76;98356.94;4853949;29;20621;-83
2022/01/02 10:58:10;;;;;;;11.43;9.47;;;;;;;9.46;96.87;98348.13;4853883;29;20630;-84
2022/01/02 11:00:39;;;;;;;9.93;8.90;;;;;;;9.46;96.94;98329.06;4853320;29;20637;-83
2022/01/02 11:03:07;;;;;;;15.90;14.20;;;;;;;9.39;96.89;98325.13;4853337;29;20685;-83
2022/01/02 11:05:37;;;;;;;25.50;22.97;;;;;;;9.28;97.07;98322.34;4851473;29;20670;-83
2022/01/02 11:08:05;;;;;;;19.80;17.90;;;;;;;9.36;97.46;98327.09;4833397;29;20730;-83
2022/01/02 11:10:35;;;;;;;17.00;15.30;;;;;;;9.43;97.64;98311.03;4856162;29;20635;-83
2022/01/02 11:13:05;;;;;;;19.27;17.23;;;;;;;9.52;97.56;98319.09;4849836;29;21183;-83
2022/01/02 11:15:35;;;;;;;18.00;16.10;;;;;;;9.58;98.19;98325.72;4855596;29;20721;-83
2022/01/02 11:18:03;;;;;;;21.40;18.60;;;;;;;9.67;98.17;98323.38;4833036;29;20675;-83
2022/01/02 11:20:34;;;;;;;24.40;20.30;;;;;;;9.72;98.15;98334.34;4845845;29;20640;-84
2022/01/02 11:23:08;;;;;;;38.23;22.47;;;;;;;9.78;98.11;98346.16;4831139;29;21393;-83
2022/01/02 11:25:43;;;;;;;16.80;12.77;;;;;;;9.80;97.33;98354.72;4846414;29;20659;-83
2022/01/02 11:28:17;;;;;;;12.23;9.33;;;;;;;9.79;96.71;98353.03;4849319;29;20649;-83
2022/01/02 11:30:50;;;;;;;11.90;9.10;;;;;;;9.82;97.74;98355.44;4868083;29;21245;-84
2022/01/02 11:33:19;;;;;;;14.43;10.40;;;;;;;9.84;97.54;98351.00;4846977;29;21217;-83
2022/01/02 11:35:49;;;;;;;13.63;8.80;;;;;;;9.91;96.73;98347.94;4851687;29;21478;-83
2022/01/02 11:38:19;;;;;;;12.40;9.77;;;;;;;9.98;97.48;98354.47;4851993;29;20723;-83
2022/01/02 11:40:51;;;;;;;12.70;10.13;;;;;;;10.02;96.55;98351.56;4843041;29;20668;-83
2022/01/02 11:43:57;;;;;;;12.00;10.70;;;;;;;10.07;97.46;98346.06;4855747;29;20717;-83
2022/01/02 11:46:28;;;;;;;13.80;10.73;;;;;;;10.14;96.81;98343.00;4851212;29;20625;-83
2022/01/02 11:49:19;;;;;;;13.93;10.60;;;;;;;10.21;97.36;98343.44;4858771;29;20662;-83
2022/01/02 11:52:22;;;;;;;12.07;9.67;;;;;;;10.24;97.14;98349.31;4850636;29;20637;-83
2022/01/02 11:54:55;;;;;;;11.20;9.33;;;;;;;10.23;96.26;98328.56;4854264;29;21132;-83
2022/01/02 11:57:54;;;;;;;22.30;14.30;;;;;;;10.28;96.34;98316.06;4866905;29;21177;-83
2022/01/02 12:00:41;;;;;;;14.00;10.17;;;;;;;10.28;96.44;98295.22;4855539;29;20716;-83
2022/01/02 12:03:42;;;;;;;12.20;9.23;;;;;;;10.25;96.94;98300.63;4846355;29;21164;-83
2022/01/02 12:06:21;;;;;;;11.37;8.30;;;;;;;10.28;96.03;98292.59;4828194;29;20682;-83
2022/01/02 12:08:50;;;;;;;11.10;8.33;;;;;;;10.32;95.59;98299.31;4841763;29;20670;-82
2022/01/02 12:11:43;;;;;;;12.97;9.77;;;;;;;10.32;96.79;98303.56;4851546;29;20622;-83
2022/01/02 12:14:18;;;;;;;13.20;11.00;;;;;;;10.37;96.10;98311.09;4855056;29;20632;-83
2022/01/02 12:16:56;;;;;;;21.20;15.27;;;;;;;10.45;96.33;98303.63;4853215;29;21007;-83
2022/01/02 12:19:25;;;;;;;24.10;18.10;;;;;;;10.49;97.83;98294.66;4834735;29;20634;-83
2022/01/02 12:22:19;;;;;;;28.93;22.60;;;;;;;10.56;96.16;98278.53;4853468;29;20639;-83
2022/01/02 12:24:47;;;;;;;24.50;19.23;;;;;;;10.64;97.63;98260.59;4851092;29;20745;-83
2022/01/02 12:27:17;;;;;;;44.80;28.63;;;;;;;10.73;96.78;98251.34;4855786;29;20638;-83
2022/01/02 12:29:45;;;;;;;52.53;30.20;;;;;;;10.80;97.77;98249.03;4856119;29;20645;-83
2022/01/02 12:32:15;;;;;;;38.20;22.93;;;;;;;10.91;97.41;98266.59;4856505;29;20629;-83
2022/01/02 12:34:43;;;;;;;17.50;14.33;;;;;;;10.99;97.37;98265.16;4850447;29;21012;-82
2022/01/02 12:37:11;;;;;;;57.47;33.50;;;;;;;11.06;98.05;98263.78;4856338;29;20657;-83
2022/01/02 12:39:43;;;;;;;33.13;22.73;;;;;;;11.11;96.57;98256.50;4842865;29;20641;-83
2022/01/02 12:42:14;;;;;;;27.23;19.40;;;;;;;11.14;97.70;98263.25;4858742;29;20721;-83
2022/01/02 12:44:43;;;;;;;12.83;10.13;;;;;;;11.14;95.33;98261.50;4849004;29;20633;-83
2022/01/02 12:47:19;;;;;;;13.17;11.00;;;;;;;11.17;97.49;98253.47;4857805;29;20660;-83
2022/01/02 12:49:48;;;;;;;12.93;11.60;;;;;;;11.21;95.89;98247.09;4857369;29;21212;-83
2022/01/02 12:52:17;;;;;;;12.80;10.87;;;;;;;11.23;96.52;98245.22;4848033;29;20641;-83
2022/01/02 12:54:50;;;;;;;13.83;11.90;;;;;;;11.25;95.27;98248.56;4848653;29;21192;-83
2022/01/02 12:57:21;;;;;;;11.50;9.90;;;;;;;11.24;95.24;98239.03;4833811;29;20720;-83